createdAt,value
2022-08-20T00:03:08.410Z,7.12
2022-08-20T00:08:13.497Z,7.00
2022-08-20T00:13:22.828Z,8.63
2022-08-20T00:18:27.227Z,7.22
2022-08-20T00:23:31.088Z,6.97
2022-08-20T00:28:36.173Z,8.43
2022-08-20T00:33:40.565Z,11.98
2022-08-20T00:38:46.550Z,8.32
2022-08-20T00:43:53.948Z,8.90
2022-08-20T00:48:58.839Z,10.10
2022-08-20T00:54:06.699Z,11.82
2022-08-20T00:59:17.669Z,13.95
2022-08-20T01:04:21.423Z,12.75
2022-08-20T01:09:33.341Z,15.93
2022-08-20T01:14:50.838Z,15.02
2022-08-20T01:19:59.870Z,20.02
2022-08-20T01:25:11.085Z,16.42
2022-08-20T01:30:16.351Z,16.30
2022-08-20T01:35:22.028Z,22.30
2022-08-20T01:40:40.499Z,25.48
2022-08-20T01:45:45.668Z,29.77
2022-08-20T01:50:59.542Z,36.47
2022-08-20T01:56:03.848Z,31.60
2022-08-20T02:01:09.018Z,32.80
2022-08-20T02:06:15.235Z,31.43
2022-08-20T02:11:19.003Z,31.60
2022-08-20T02:16:29.148Z,27.20
2022-08-20T02:21:34.176Z,32.13
2022-08-20T02:26:38.396Z,24.55
2022-08-20T02:32:23.649Z,33.33
2022-08-20T02:37:09.607Z,29.58
2022-08-20T02:42:14.360Z,31.73
2022-08-20T02:47:19.456Z,26.85
2022-08-20T02:52:23.169Z,25.65
2022-08-20T02:57:26.892Z,25.75
2022-08-20T03:02:32.095Z,38.17
2022-08-20T03:07:42.043Z,35.38
2022-08-20T03:12:45.798Z,24.08
2022-08-20T03:17:53.641Z,30.30
2022-08-20T03:22:58.434Z,33.00
2022-08-20T03:28:02.610Z,28.38
2022-08-20T03:33:08.788Z,31.48
2022-08-20T03:38:15.513Z,29.98
2022-08-20T03:43:20.027Z,31.30
2022-08-20T03:48:25.323Z,29.98
2022-08-20T03:53:31.485Z,27.00
2022-08-20T03:58:36.691Z,29.67
2022-08-20T04:03:42.248Z,29.20
2022-08-20T04:08:45.984Z,33.47
2022-08-20T04:13:49.671Z,35.10
2022-08-20T04:18:56.267Z,32.95
2022-08-20T04:24:07.242Z,35.58
2022-08-20T04:29:10.923Z,34.58
2022-08-20T04:34:17.019Z,32.28
2022-08-20T04:39:20.725Z,24.48
2022-08-20T04:44:24.477Z,36.33
2022-08-20T04:49:29.541Z,30.40
2022-08-20T04:54:33.920Z,24.48
2022-08-20T04:59:37.588Z,40.47
2022-08-20T05:04:42.648Z,36.17
2022-08-20T05:09:46.896Z,37.60
2022-08-20T05:14:50.611Z,41.30
2022-08-20T05:19:55.697Z,36.22
2022-08-20T05:25:01.681Z,33.50
2022-08-20T05:30:08.579Z,41.45
2022-08-20T05:35:16.857Z,35.17
2022-08-20T05:40:22.835Z,40.67
2022-08-20T05:45:26.618Z,44.45
2022-08-20T05:50:31.707Z,39.72
2022-08-20T05:55:37.411Z,48.20
2022-08-20T06:00:41.349Z,35.42
2022-08-20T06:05:46.987Z,39.15
2022-08-20T06:10:50.840Z,32.25
2022-08-20T06:15:54.661Z,34.30
2022-08-20T06:21:00.494Z,39.90
2022-08-20T06:26:04.238Z,33.88
2022-08-20T06:31:07.977Z,48.17
2022-08-20T06:36:13.863Z,30.83
2022-08-20T06:41:22.784Z,30.70
2022-08-20T06:46:40.123Z,34.47
2022-08-20T06:51:45.167Z,39.83
2022-08-20T06:56:54.621Z,30.80
2022-08-20T07:01:58.304Z,32.17
2022-08-20T07:07:03.386Z,33.70
2022-08-20T07:12:10.437Z,35.17
2022-08-20T07:17:14.424Z,37.47
2022-08-20T07:22:19.484Z,31.20
2022-08-20T07:27:24.156Z,29.12
2022-08-20T07:32:39.515Z,29.70
2022-08-20T07:37:46.549Z,26.23
2022-08-20T07:42:50.627Z,23.40
2022-08-20T07:47:56.097Z,24.63
2022-08-20T07:53:01.330Z,21.70
2022-08-20T07:58:10.051Z,20.67
2022-08-20T08:03:14.258Z,23.17
2022-08-20T08:08:22.884Z,17.80
2022-08-20T08:13:29.146Z,16.77
2022-08-20T08:18:39.712Z,22.33
2022-08-20T08:23:44.916Z,15.30
2022-08-20T08:28:49.200Z,14.68
2022-08-20T08:33:52.894Z,13.35
2022-08-20T08:38:57.947Z,11.38
2022-08-20T08:44:08.153Z,11.12
2022-08-20T08:49:15.265Z,9.10
2022-08-20T08:54:24.771Z,9.65
2022-08-20T08:59:48.739Z,12.02
2022-08-20T09:04:56.826Z,10.20
2022-08-20T09:10:03.291Z,17.83
2022-08-20T09:15:07.803Z,6.75
2022-08-20T09:20:12.365Z,14.00
2022-08-20T09:25:17.960Z,9.63
2022-08-20T09:30:21.695Z,8.55
2022-08-20T09:35:26.101Z,12.18
2022-08-20T09:40:31.281Z,7.40
2022-08-20T09:45:35.077Z,7.70
2022-08-20T09:50:49.908Z,9.02
2022-08-20T09:55:56.451Z,9.63
2022-08-20T10:01:01.661Z,13.05
2022-08-20T10:06:05.587Z,3.78
2022-08-20T10:11:10.973Z,7.35
2022-08-20T10:16:14.796Z,10.63
2022-08-20T10:21:18.593Z,8.90
2022-08-20T10:26:23.692Z,9.82
2022-08-20T10:31:29.275Z,9.82
2022-08-20T10:36:33.279Z,7.00
2022-08-20T10:41:39.133Z,10.60
2022-08-20T10:46:43.002Z,6.35
2022-08-20T10:51:46.710Z,7.15
2022-08-20T10:56:52.636Z,8.18
2022-08-20T11:01:56.618Z,7.82
2022-08-20T11:07:10.757Z,6.15
2022-08-20T11:12:16.439Z,13.73
2022-08-20T11:17:22.268Z,8.93
2022-08-20T11:22:26.127Z,14.23
2022-08-20T11:27:34.158Z,7.82
2022-08-20T11:32:38.167Z,5.85
2022-08-20T11:37:41.905Z,7.57
2022-08-20T11:43:11.004Z,9.52
2022-08-20T11:48:11.236Z,10.73
2022-08-20T11:53:15.399Z,10.40
2022-08-20T11:58:20.487Z,7.28
2022-08-20T12:03:24.406Z,10.60
2022-08-20T12:08:29.385Z,9.65
2022-08-20T12:13:47.521Z,7.47
2022-08-20T12:18:52.939Z,6.95
2022-08-20T12:23:56.663Z,11.00
2022-08-20T12:29:01.709Z,6.57
2022-08-20T12:34:05.504Z,5.78
2022-08-20T12:39:09.453Z,6.78
2022-08-20T12:44:14.533Z,5.75
2022-08-20T12:49:18.457Z,7.80
2022-08-20T12:54:22.185Z,8.32
2022-08-20T12:59:28.028Z,8.23
2022-08-20T13:04:31.759Z,6.25
2022-08-20T13:09:35.645Z,11.65
2022-08-20T13:14:45.344Z,7.93
2022-08-20T13:19:49.351Z,11.45
2022-08-20T13:24:53.552Z,6.75
2022-08-20T13:29:59.294Z,11.45
2022-08-20T13:35:03.465Z,10.82
2022-08-20T13:40:08.680Z,7.30
2022-08-20T13:45:14.001Z,9.63
2022-08-20T13:50:20.628Z,9.70
2022-08-20T13:55:26.992Z,6.80
2022-08-20T14:00:34.299Z,10.93
2022-08-20T14:05:39.199Z,7.90
2022-08-20T14:10:43.668Z,6.47
2022-08-20T14:15:48.862Z,6.57
2022-08-20T14:20:52.594Z,12.37
2022-08-20T14:25:56.303Z,5.80
2022-08-20T14:31:01.359Z,7.53
2022-08-20T14:36:05.784Z,8.07
2022-08-20T14:41:09.499Z,6.55
2022-08-20T14:46:14.600Z,6.12
2022-08-20T14:51:18.264Z,5.03
2022-08-20T14:56:21.972Z,7.95
2022-08-20T15:01:27.267Z,7.62
2022-08-20T15:06:31.203Z,7.53
2022-08-20T15:11:37.977Z,5.15
2022-08-20T15:16:43.416Z,8.27
2022-08-20T15:21:47.572Z,8.00
2022-08-20T15:26:51.464Z,6.72
2022-08-20T15:31:56.515Z,5.05
2022-08-20T15:37:06.859Z,6.00
2022-08-20T15:42:12.520Z,8.65
2022-08-20T15:47:24.532Z,23.87
2022-08-20T15:52:33.731Z,6.50
2022-08-20T15:57:49.101Z,6.97
2022-08-20T16:03:17.668Z,4.45
2022-08-20T16:08:35.861Z,4.53
2022-08-20T16:13:42.072Z,5.32
2022-08-20T16:18:51.183Z,4.67
2022-08-20T16:23:55.625Z,3.65
2022-08-20T16:29:11.338Z,2.50
2022-08-20T16:34:33.740Z,2.90
2022-08-20T16:39:47.588Z,3.05
2022-08-20T16:44:55.812Z,4.00
2022-08-20T16:50:05.984Z,3.03
2022-08-20T16:55:10.391Z,3.20
2022-08-20T17:00:22.812Z,4.93
2022-08-20T17:05:31.284Z,7.30
2022-08-20T17:10:40.634Z,4.28
2022-08-20T17:15:53.158Z,5.82
2022-08-20T17:21:03.909Z,4.03
2022-08-20T17:26:22.127Z,4.85
2022-08-20T17:31:38.825Z,3.50
2022-08-20T17:36:52.905Z,8.63
2022-08-20T17:42:06.198Z,17.00
2022-08-20T17:47:16.294Z,7.90
2022-08-20T17:52:28.471Z,4.45
2022-08-20T17:57:44.152Z,5.75
2022-08-20T18:02:47.945Z,4.53
2022-08-20T18:08:08.574Z,4.20
2022-08-20T18:13:18.767Z,4.50
2022-08-20T18:18:36.578Z,3.53
2022-08-20T18:24:05.522Z,5.90
2022-08-20T18:29:14.408Z,6.82
2022-08-20T18:34:20.670Z,3.37
2022-08-20T18:39:30.483Z,4.40
2022-08-20T18:44:40.115Z,4.95
2022-08-20T18:49:44.076Z,6.15
2022-08-20T18:54:53.932Z,3.97
2022-08-20T19:00:03.164Z,3.60
2022-08-20T19:05:10.644Z,3.75
2022-08-20T19:10:35.536Z,5.18
2022-08-20T19:15:43.280Z,4.43
2022-08-20T19:20:53.830Z,4.40
2022-08-20T19:26:01.250Z,3.37
2022-08-20T19:31:12.143Z,3.62
2022-08-20T19:36:18.181Z,3.78
2022-08-20T19:41:31.513Z,6.07
2022-08-20T19:46:40.399Z,4.78
2022-08-20T19:51:54.367Z,5.18
2022-08-20T19:57:01.082Z,4.57
2022-08-20T20:02:19.913Z,7.07
2022-08-20T20:07:26.986Z,4.43
2022-08-20T20:12:34.252Z,5.32
2022-08-20T20:17:38.242Z,6.10
2022-08-20T20:22:50.862Z,7.12
2022-08-20T20:27:58.417Z,14.63
2022-08-20T20:33:11.825Z,11.47
2022-08-20T20:38:26.446Z,10.90
2022-08-20T20:43:34.503Z,9.98
2022-08-20T20:48:46.033Z,10.50
2022-08-20T20:53:54.695Z,6.82
2022-08-20T20:59:06.126Z,7.03
2022-08-20T21:04:10.485Z,10.07
2022-08-20T21:09:14.645Z,6.60
2022-08-20T21:14:19.932Z,10.30
2022-08-20T21:19:23.864Z,10.38
2022-08-20T21:24:27.841Z,9.38
2022-08-20T21:29:33.354Z,7.43
2022-08-20T21:34:37.169Z,5.80
2022-08-20T21:39:41.044Z,7.65
2022-08-20T21:44:49.489Z,8.80
2022-08-20T21:49:54.192Z,8.60
2022-08-20T21:54:58.075Z,6.72
2022-08-20T22:00:09.952Z,8.40
2022-08-20T22:05:14.286Z,8.02
2022-08-20T22:10:18.066Z,9.38
2022-08-20T22:15:23.139Z,16.12
2022-08-20T22:20:27.036Z,7.47
2022-08-20T22:25:30.796Z,5.45
2022-08-20T22:30:38.387Z,7.93
2022-08-20T22:35:47.843Z,6.37
2022-08-20T22:40:51.880Z,7.65
2022-08-20T22:46:00.673Z,8.40
2022-08-20T22:51:04.832Z,5.82
2022-08-20T22:56:19.693Z,7.57
2022-08-20T23:01:25.627Z,10.35
2022-08-20T23:06:31.861Z,8.82
2022-08-20T23:11:35.575Z,7.82
2022-08-20T23:16:44.676Z,7.57
2022-08-20T23:21:48.515Z,8.68
2022-08-20T23:26:53.068Z,6.93
2022-08-20T23:32:00.519Z,5.85
2022-08-20T23:37:05.776Z,7.05
2022-08-20T23:42:11.029Z,8.32
2022-08-20T23:47:21.533Z,8.07
2022-08-20T23:52:25.408Z,6.53
2022-08-20T23:57:29.107Z,7.82
